createdAt,value
2023-02-08T00:00:24.397Z,-6.66
2023-02-08T00:02:52.103Z,-6.66
2023-02-08T00:05:21.141Z,-6.67
2023-02-08T00:07:48.804Z,-6.65
2023-02-08T00:10:17.966Z,-6.65
2023-02-08T00:12:45.584Z,-6.64
2023-02-08T00:15:13.556Z,-6.63
2023-02-08T00:17:41.145Z,-6.63
2023-02-08T00:20:10.103Z,-6.62
2023-02-08T00:22:38.811Z,-6.62
2023-02-08T00:25:07.659Z,-6.61
2023-02-08T00:27:36.665Z,-6.61
2023-02-08T00:30:04.609Z,-6.61
2023-02-08T00:32:32.205Z,-6.64
2023-02-08T00:34:59.877Z,-6.62
2023-02-08T00:37:27.598Z,-6.60
2023-02-08T00:39:55.258Z,-6.62
2023-02-08T00:42:25.288Z,-6.60
2023-02-08T00:44:55.389Z,-6.61
2023-02-08T00:47:23.161Z,-6.60
2023-02-08T00:49:50.868Z,-6.59
2023-02-08T00:52:19.523Z,-6.56
2023-02-08T00:54:47.248Z,-6.55
2023-02-08T00:57:15.215Z,-6.54
2023-02-08T00:59:42.892Z,-6.55
2023-02-08T01:02:12.119Z,-6.56
2023-02-08T01:04:39.785Z,-6.57
2023-02-08T01:07:07.611Z,-6.61
2023-02-08T01:09:36.113Z,-6.62
2023-02-08T01:12:04.858Z,-6.61
2023-02-08T01:14:33.982Z,-6.62
2023-02-08T01:17:01.881Z,-6.63
2023-02-08T01:19:30.973Z,-6.65
2023-02-08T01:21:58.566Z,-6.67
2023-02-08T01:24:26.189Z,-6.67
2023-02-08T01:26:53.857Z,-6.69
2023-02-08T01:29:21.474Z,-6.68
2023-02-08T01:31:49.163Z,-6.69
2023-02-08T01:34:16.841Z,-6.70
2023-02-08T01:36:45.770Z,-6.70
2023-02-08T01:39:13.612Z,-6.69
2023-02-08T01:41:44.258Z,-6.68
2023-02-08T01:44:45.633Z,-6.66
2023-02-08T01:47:13.584Z,-6.65
2023-02-08T01:49:41.588Z,-6.64
2023-02-08T01:52:14.313Z,-6.63
2023-02-08T01:54:49.823Z,-6.63
2023-02-08T01:57:20.717Z,-6.64
2023-02-08T01:59:51.273Z,-6.63
2023-02-08T02:02:22.463Z,-6.64
2023-02-08T02:04:51.941Z,-6.63
2023-02-08T02:07:23.595Z,-6.62
2023-02-08T02:09:57.057Z,-6.61
2023-02-08T02:12:28.161Z,-6.59
2023-02-08T02:14:56.445Z,-6.58
2023-02-08T02:17:24.113Z,-6.57
2023-02-08T02:19:58.642Z,-6.59
2023-02-08T02:22:50.572Z,-6.59
2023-02-08T02:25:48.986Z,-6.59
2023-02-08T02:28:34.881Z,-6.57
2023-02-08T02:31:50.144Z,-6.56
2023-02-08T02:34:27.179Z,-6.55
2023-02-08T02:37:03.593Z,-6.54
2023-02-08T02:39:39.968Z,-6.55
2023-02-08T02:42:30.860Z,-6.56
2023-02-08T02:45:07.165Z,-6.56
2023-02-08T02:47:45.445Z,-6.55
2023-02-08T02:50:20.966Z,-6.54
2023-02-08T02:52:57.916Z,-6.53
2023-02-08T02:55:29.210Z,-6.53
2023-02-08T02:57:59.572Z,-6.53
2023-02-08T03:00:30.977Z,-6.54
2023-02-08T03:03:00.010Z,-6.55
2023-02-08T03:05:30.008Z,-6.56
2023-02-08T03:08:21.966Z,-6.55
2023-02-08T03:11:15.457Z,-6.55
2023-02-08T03:13:59.187Z,-6.54
2023-02-08T03:16:39.715Z,-6.54
2023-02-08T03:19:16.412Z,-6.54
2023-02-08T03:21:51.995Z,-6.54
2023-02-08T03:24:26.669Z,-6.58
2023-02-08T03:26:58.913Z,-6.60
2023-02-08T03:29:38.369Z,-6.62
2023-02-08T03:32:11.046Z,-6.64
2023-02-08T03:34:47.111Z,-6.65
2023-02-08T03:37:19.519Z,-6.65
2023-02-08T03:39:49.849Z,-6.66
2023-02-08T03:42:23.094Z,-6.66
2023-02-08T03:44:57.114Z,-6.64
2023-02-08T03:47:27.838Z,-6.64
2023-02-08T03:50:02.888Z,-6.63
2023-02-08T03:52:32.906Z,-6.65
2023-02-08T03:55:05.355Z,-6.67
2023-02-08T03:57:37.473Z,-6.67
2023-02-08T04:00:09.130Z,-6.70
2023-02-08T04:02:44.014Z,-6.72
2023-02-08T04:05:13.536Z,-6.71
2023-02-08T04:07:41.181Z,-6.71
2023-02-08T04:10:09.534Z,-6.69
2023-02-08T04:12:37.475Z,-6.69
2023-02-08T04:15:05.675Z,-6.68
2023-02-08T04:17:33.308Z,-6.67
2023-02-08T04:20:01.233Z,-6.67
2023-02-08T04:22:30.190Z,-6.69
2023-02-08T04:24:57.796Z,-6.72
2023-02-08T04:27:25.408Z,-6.74
2023-02-08T04:29:53.102Z,-6.80
2023-02-08T04:32:20.733Z,-6.83
2023-02-08T04:34:48.463Z,-6.85
2023-02-08T04:37:16.083Z,-6.85
2023-02-08T04:39:45.049Z,-6.87
2023-02-08T04:42:12.640Z,-6.87
2023-02-08T04:44:40.232Z,-6.86
2023-02-08T04:47:08.028Z,-6.86
2023-02-08T04:49:35.666Z,-6.86
2023-02-08T04:52:03.286Z,-6.85
2023-02-08T04:54:31.014Z,-6.86
2023-02-08T04:56:59.933Z,-6.87
2023-02-08T04:59:27.536Z,-6.88
2023-02-08T05:01:55.243Z,-6.86
2023-02-08T05:04:22.892Z,-6.86
2023-02-08T05:06:50.480Z,-6.85
2023-02-08T05:09:18.076Z,-6.86
2023-02-08T05:11:45.642Z,-6.85
2023-02-08T05:14:14.584Z,-6.85
2023-02-08T05:16:42.235Z,-6.85
2023-02-08T05:19:10.659Z,-6.87
2023-02-08T05:21:38.308Z,-6.89
2023-02-08T05:24:07.093Z,-6.90
2023-02-08T05:26:34.684Z,-6.91
2023-02-08T05:29:02.262Z,-6.93
2023-02-08T05:31:31.648Z,-6.95
2023-02-08T05:33:59.292Z,-6.97
2023-02-08T05:36:26.944Z,-6.99
2023-02-08T05:38:54.562Z,-7.02
2023-02-08T05:41:22.407Z,-7.05
2023-02-08T05:43:50.065Z,-7.07
2023-02-08T05:46:17.727Z,-7.09
2023-02-08T05:48:46.718Z,-7.07
2023-02-08T05:51:14.391Z,-7.07
2023-02-08T05:53:43.437Z,-7.08
2023-02-08T05:56:11.020Z,-7.06
2023-02-08T05:58:39.066Z,-7.05
2023-02-08T06:01:10.391Z,-7.05
2023-02-08T06:03:38.334Z,-7.05
2023-02-08T06:06:11.074Z,-7.06
2023-02-08T06:08:39.082Z,-7.04
2023-02-08T06:11:07.199Z,-7.02
2023-02-08T06:13:35.038Z,-7.02
2023-02-08T06:16:02.876Z,-7.03
2023-02-08T06:18:30.492Z,-7.02
2023-02-08T06:20:58.363Z,-7.02
2023-02-08T06:23:27.480Z,-7.01
2023-02-08T06:25:55.096Z,-7.01
2023-02-08T06:28:22.719Z,-7.00
2023-02-08T06:30:50.394Z,-7.02
2023-02-08T06:33:18.370Z,-6.99
2023-02-08T06:35:46.665Z,-7.00
2023-02-08T06:38:14.675Z,-7.00
2023-02-08T06:40:43.676Z,-6.99
2023-02-08T06:43:11.320Z,-7.00
2023-02-08T06:45:38.943Z,-7.00
2023-02-08T06:48:06.706Z,-7.02
2023-02-08T06:50:34.284Z,-7.02
2023-02-08T06:53:01.916Z,-7.01
2023-02-08T06:55:29.498Z,-7.02
2023-02-08T06:57:58.398Z,-7.03
2023-02-08T07:00:26.043Z,-7.01
2023-02-08T07:02:53.622Z,-7.02
2023-02-08T07:05:21.224Z,-7.02
2023-02-08T07:07:49.449Z,-7.01
2023-02-08T07:10:17.246Z,-6.99
2023-02-08T07:12:44.846Z,-6.97
2023-02-08T07:15:14.193Z,-6.97
2023-02-08T07:17:41.819Z,-6.95
2023-02-08T07:20:11.437Z,-6.94
2023-02-08T07:22:39.638Z,-6.91
2023-02-08T07:25:08.710Z,-6.90
2023-02-08T07:27:36.801Z,-6.87
2023-02-08T07:30:05.017Z,-6.86
2023-02-08T07:32:34.897Z,-6.83
2023-02-08T07:35:02.630Z,-6.82
2023-02-08T07:37:30.206Z,-6.81
2023-02-08T07:39:57.867Z,-6.79
2023-02-08T07:42:25.444Z,-6.79
2023-02-08T07:45:04.553Z,-6.74
2023-02-08T07:47:32.197Z,-6.70
2023-02-08T07:50:01.178Z,-6.66
2023-02-08T07:52:29.057Z,-6.64
2023-02-08T07:54:57.004Z,-6.60
2023-02-08T07:57:24.616Z,-6.56
2023-02-08T07:59:54.155Z,-6.53
2023-02-08T08:02:21.904Z,-6.50
2023-02-08T08:04:49.580Z,-6.47
2023-02-08T08:07:18.504Z,-6.44
2023-02-08T08:09:46.101Z,-6.42
2023-02-08T08:12:13.684Z,-6.40
2023-02-08T08:14:41.258Z,-6.35
2023-02-08T08:17:08.908Z,-6.32
2023-02-08T08:19:36.499Z,-6.27
2023-02-08T08:22:04.111Z,-6.21
2023-02-08T08:24:35.577Z,-6.19
2023-02-08T08:27:04.692Z,-6.14
2023-02-08T08:29:32.906Z,-6.10
2023-02-08T08:32:00.515Z,-6.08
2023-02-08T08:34:30.582Z,-6.04
2023-02-08T08:36:58.230Z,-5.98
2023-02-08T08:39:27.282Z,-5.93
2023-02-08T08:41:58.547Z,-5.89
2023-02-08T08:44:26.609Z,-5.84
2023-02-08T08:46:56.483Z,-5.79
2023-02-08T08:49:24.083Z,-5.77
2023-02-08T08:51:51.950Z,-5.74
2023-02-08T08:54:20.547Z,-5.73
2023-02-08T08:56:48.689Z,-5.73
2023-02-08T08:59:17.687Z,-5.71
2023-02-08T09:01:45.429Z,-5.68
2023-02-08T09:04:13.198Z,-5.64
2023-02-08T09:06:40.857Z,-5.60
2023-02-08T09:09:08.831Z,-5.57
2023-02-08T09:11:36.449Z,-5.55
2023-02-08T09:14:04.807Z,-5.50
2023-02-08T09:16:34.576Z,-5.45
2023-02-08T09:19:02.980Z,-5.40
2023-02-08T09:21:30.647Z,-5.33
2023-02-08T09:23:58.598Z,-5.28
2023-02-08T09:26:26.708Z,-5.20
2023-02-08T09:28:54.551Z,-5.15
2023-02-08T09:31:24.097Z,-5.11
2023-02-08T09:33:54.961Z,-5.07
2023-02-08T09:36:24.265Z,-5.00
2023-02-08T09:38:57.463Z,-4.93
2023-02-08T09:41:40.077Z,-4.85
2023-02-08T09:44:21.145Z,-4.79
2023-02-08T09:46:57.029Z,-4.65
2023-02-08T09:49:31.920Z,-4.49
2023-02-08T09:52:03.604Z,-4.42
2023-02-08T09:54:34.690Z,-4.37
2023-02-08T09:57:07.048Z,-4.27
2023-02-08T09:59:36.392Z,-4.15
2023-02-08T10:02:26.285Z,-4.06
2023-02-08T10:05:01.376Z,-4.05
2023-02-08T10:07:30.022Z,-4.04
2023-02-08T10:10:01.161Z,-4.01
2023-02-08T10:12:38.947Z,-4.01
2023-02-08T10:15:29.648Z,-3.98
2023-02-08T10:18:12.165Z,-3.94
2023-02-08T10:20:51.500Z,-3.91
2023-02-08T10:23:33.860Z,-3.90
2023-02-08T10:26:13.439Z,-3.89
2023-02-08T10:29:06.017Z,-3.89
2023-02-08T10:31:49.334Z,-3.90
2023-02-08T10:34:25.682Z,-3.89
2023-02-08T10:36:55.186Z,-3.89
2023-02-08T10:39:29.169Z,-3.83
2023-02-08T10:41:57.277Z,-3.69
2023-02-08T10:44:35.166Z,-3.55
2023-02-08T10:47:13.782Z,-3.45
2023-02-08T10:49:50.147Z,-3.41
2023-02-08T10:52:19.665Z,-3.25
2023-02-08T10:54:47.354Z,-3.14
2023-02-08T10:57:18.764Z,-3.01
2023-02-08T10:59:50.226Z,-2.90
2023-02-08T11:02:26.666Z,-2.90
2023-02-08T11:05:07.953Z,-2.92
2023-02-08T11:07:37.382Z,-2.96
2023-02-08T11:10:26.130Z,-2.93
2023-02-08T11:12:56.587Z,-2.78
2023-02-08T11:15:26.980Z,-2.67
2023-02-08T11:17:58.496Z,-2.60
2023-02-08T11:20:33.024Z,-2.55
2023-02-08T11:23:02.116Z,-2.54
2023-02-08T11:25:36.398Z,-2.48
2023-02-08T11:28:05.438Z,-2.43
2023-02-08T11:30:33.853Z,-2.48
2023-02-08T11:33:20.437Z,-2.48
2023-02-08T11:36:01.494Z,-2.46
2023-02-08T11:38:32.064Z,-2.34
2023-02-08T11:41:03.223Z,-2.22
2023-02-08T11:43:33.217Z,-2.12
2023-02-08T11:46:03.051Z,-2.07
2023-02-08T11:48:40.426Z,-2.11
2023-02-08T11:51:08.746Z,-2.08
2023-02-08T11:53:41.340Z,-1.99
2023-02-08T11:56:19.575Z,-1.88
2023-02-08T11:59:03.349Z,-1.78
2023-02-08T12:01:33.280Z,-1.66
2023-02-08T12:04:03.324Z,-1.60
2023-02-08T12:07:00.962Z,-1.57
2023-02-08T12:09:56.391Z,-1.53
2023-02-08T12:12:31.354Z,-1.49
2023-02-08T12:15:08.383Z,-1.41
2023-02-08T12:17:49.570Z,-1.41
2023-02-08T12:20:42.128Z,-1.34
2023-02-08T12:23:29.187Z,-1.21
2023-02-08T12:26:07.931Z,-1.11
2023-02-08T12:28:47.182Z,-0.98
2023-02-08T12:31:24.302Z,-0.87
2023-02-08T12:34:03.649Z,-0.74
2023-02-08T12:37:13.418Z,-0.64
2023-02-08T12:40:04.894Z,-0.50
2023-02-08T12:42:49.147Z,-0.33
2023-02-08T12:45:41.990Z,-0.11
2023-02-08T12:48:22.424Z,0.05
2023-02-08T12:50:56.301Z,0.21
2023-02-08T12:53:31.767Z,0.33
2023-02-08T12:56:03.228Z,0.46
2023-02-08T12:58:36.696Z,0.47
2023-02-08T13:01:12.901Z,0.55
2023-02-08T13:03:46.723Z,0.59
2023-02-08T13:06:18.704Z,0.62
2023-02-08T13:08:51.495Z,0.70
2023-02-08T13:11:25.051Z,0.73
2023-02-08T13:13:59.755Z,0.70
2023-02-08T13:16:30.873Z,0.72
2023-02-08T13:19:24.530Z,0.70
2023-02-08T13:21:53.383Z,0.75
2023-02-08T13:24:29.608Z,0.83
2023-02-08T13:26:57.356Z,0.93
2023-02-08T13:29:28.390Z,0.95
2023-02-08T13:32:00.569Z,0.92
2023-02-08T13:34:37.341Z,0.84
2023-02-08T13:37:16.675Z,0.78
2023-02-08T13:39:58.858Z,0.81
2023-02-08T13:42:31.804Z,0.83
2023-02-08T13:45:03.019Z,0.88
2023-02-08T13:47:33.178Z,0.86
2023-02-08T13:50:02.130Z,0.85
2023-02-08T13:52:53.201Z,0.92
2023-02-08T13:55:45.982Z,0.97
2023-02-08T13:58:37.397Z,1.03
2023-02-08T14:01:21.334Z,1.11
2023-02-08T14:04:30.341Z,1.20
2023-02-08T14:07:18.593Z,1.25
2023-02-08T14:09:54.008Z,1.23
2023-02-08T14:12:28.202Z,1.15
2023-02-08T14:15:27.872Z,1.04
2023-02-08T14:17:59.750Z,0.93
2023-02-08T14:20:32.149Z,0.85
2023-02-08T14:23:02.716Z,0.77
2023-02-08T14:25:39.556Z,0.71
2023-02-08T14:28:08.561Z,0.66
2023-02-08T14:30:38.527Z,0.66
2023-02-08T14:33:22.395Z,0.67
2023-02-08T14:35:56.133Z,0.68
2023-02-08T14:38:50.415Z,0.65
2023-02-08T14:41:47.836Z,0.58
2023-02-08T14:44:48.907Z,0.51
2023-02-08T14:47:53.161Z,0.49
2023-02-08T14:50:26.913Z,0.48
2023-02-08T14:53:02.253Z,0.47
2023-02-08T14:55:35.207Z,0.48
2023-02-08T14:58:03.961Z,0.45
2023-02-08T15:00:36.516Z,0.41
2023-02-08T15:03:06.647Z,0.37
2023-02-08T15:05:41.327Z,0.32
2023-02-08T15:08:09.250Z,0.29
2023-02-08T15:10:44.872Z,0.27
2023-02-08T15:13:19.348Z,0.24
2023-02-08T15:15:51.636Z,0.21
2023-02-08T15:18:21.517Z,0.15
2023-02-08T15:21:03.840Z,0.10
2023-02-08T15:23:31.960Z,0.03
2023-02-08T15:26:02.842Z,-0.03
2023-02-08T15:28:31.838Z,-0.09
2023-02-08T15:31:01.706Z,-0.12
2023-02-08T15:33:29.727Z,-0.20
2023-02-08T15:36:01.141Z,-0.27
2023-02-08T15:38:30.564Z,-0.35
2023-02-08T15:41:05.620Z,-0.42
2023-02-08T15:43:34.202Z,-0.50
2023-02-08T15:46:04.048Z,-0.59
2023-02-08T15:48:33.663Z,-0.66
2023-02-08T15:51:03.966Z,-0.75
2023-02-08T15:53:32.474Z,-0.83
2023-02-08T15:56:04.337Z,-0.91
2023-02-08T15:58:36.732Z,-0.99
2023-02-08T16:01:07.700Z,-1.06
2023-02-08T16:03:36.671Z,-1.13
2023-02-08T16:06:07.997Z,-1.19
2023-02-08T16:08:40.805Z,-1.26
2023-02-08T16:11:12.679Z,-1.35
2023-02-08T16:13:46.729Z,-1.41
2023-02-08T16:16:20.939Z,-1.49
2023-02-08T16:18:50.920Z,-1.54
2023-02-08T16:21:27.108Z,-1.61
2023-02-08T16:23:57.526Z,-1.66
2023-02-08T16:26:28.674Z,-1.72
2023-02-08T16:28:59.788Z,-1.78
2023-02-08T16:31:30.548Z,-1.82
2023-02-08T16:34:01.020Z,-1.88
2023-02-08T16:36:37.191Z,-1.93
2023-02-08T16:39:35.968Z,-1.98
2023-02-08T16:42:15.473Z,-2.04
2023-02-08T16:44:59.982Z,-2.09
2023-02-08T16:47:36.006Z,-2.15
2023-02-08T16:50:03.724Z,-2.21
2023-02-08T16:52:32.850Z,-2.27
2023-02-08T16:55:00.511Z,-2.31
2023-02-08T16:57:40.422Z,-2.34
2023-02-08T17:00:16.751Z,-2.40
2023-02-08T17:02:44.366Z,-2.44
2023-02-08T17:05:12.770Z,-2.49
2023-02-08T17:07:41.751Z,-2.52
2023-02-08T17:10:18.119Z,-2.56
2023-02-08T17:12:45.791Z,-2.59
2023-02-08T17:15:13.430Z,-2.64
2023-02-08T17:17:41.103Z,-2.67
2023-02-08T17:20:18.842Z,-2.73
2023-02-08T17:22:47.927Z,-2.78
2023-02-08T17:25:19.091Z,-2.82
2023-02-08T17:27:48.585Z,-2.88
2023-02-08T17:30:20.821Z,-2.92
2023-02-08T17:32:49.735Z,-2.97
2023-02-08T17:35:18.312Z,-3.02
2023-02-08T17:37:49.483Z,-3.05
2023-02-08T17:40:17.838Z,-3.07
2023-02-08T17:42:47.595Z,-3.11
2023-02-08T17:45:15.392Z,-3.15
2023-02-08T17:47:42.990Z,-3.17
2023-02-08T17:50:11.567Z,-3.22
2023-02-08T17:52:39.905Z,-3.26
2023-02-08T17:55:12.445Z,-3.31
2023-02-08T17:57:41.823Z,-3.35
2023-02-08T18:00:12.394Z,-3.40
2023-02-08T18:02:43.910Z,-3.45
2023-02-08T18:05:11.549Z,-3.48
2023-02-08T18:07:39.830Z,-3.52
2023-02-08T18:10:10.621Z,-3.55
2023-02-08T18:12:39.054Z,-3.59
2023-02-08T18:15:08.138Z,-3.62
2023-02-08T18:17:36.255Z,-3.66
2023-02-08T18:20:03.947Z,-3.70
2023-02-08T18:22:31.583Z,-3.73
2023-02-08T18:24:59.455Z,-3.76
2023-02-08T18:27:28.449Z,-3.77
2023-02-08T18:29:56.400Z,-3.82
2023-02-08T18:32:24.103Z,-3.85
2023-02-08T18:34:51.705Z,-3.90
2023-02-08T18:37:19.300Z,-3.93
2023-02-08T18:39:47.128Z,-3.99
2023-02-08T18:42:14.758Z,-4.01
2023-02-08T18:44:43.714Z,-4.04
2023-02-08T18:47:11.837Z,-4.07
2023-02-08T18:49:41.277Z,-4.10
2023-02-08T18:52:09.901Z,-4.12
2023-02-08T18:54:38.542Z,-4.16
2023-02-08T18:57:09.472Z,-4.18
2023-02-08T18:59:37.734Z,-4.21
2023-02-08T19:02:07.858Z,-4.20
2023-02-08T19:04:37.714Z,-4.18
2023-02-08T19:07:05.358Z,-4.17
2023-02-08T19:09:36.073Z,-4.17
2023-02-08T19:12:04.215Z,-4.17
2023-02-08T19:14:32.332Z,-4.21
2023-02-08T19:17:00.430Z,-4.22
2023-02-08T19:19:29.406Z,-4.24
2023-02-08T19:21:57.101Z,-4.25
2023-02-08T19:24:24.848Z,-4.28
2023-02-08T19:26:52.462Z,-4.30
2023-02-08T19:29:22.217Z,-4.33
2023-02-08T19:31:50.840Z,-4.34
2023-02-08T19:34:19.449Z,-4.35
2023-02-08T19:36:51.613Z,-4.34
2023-02-08T19:39:21.951Z,-4.34
2023-02-08T19:41:50.260Z,-4.30
2023-02-08T19:44:19.516Z,-4.28
2023-02-08T19:46:49.633Z,-4.26
2023-02-08T19:49:17.404Z,-4.23
2023-02-08T19:51:45.444Z,-4.21
2023-02-08T19:54:16.938Z,-4.21
2023-02-08T19:56:44.852Z,-4.21
2023-02-08T19:59:18.229Z,-4.21
2023-02-08T20:01:46.617Z,-4.22
2023-02-08T20:04:14.611Z,-4.20
2023-02-08T20:06:44.954Z,-4.19
2023-02-08T20:09:16.479Z,-4.18
2023-02-08T20:11:56.513Z,-4.19
2023-02-08T20:14:25.600Z,-4.16
2023-02-08T20:16:53.629Z,-4.17
2023-02-08T20:19:21.382Z,-4.17
2023-02-08T20:21:49.545Z,-4.15
2023-02-08T20:24:18.665Z,-4.17
2023-02-08T20:26:48.300Z,-4.17
2023-02-08T20:29:16.992Z,-4.15
2023-02-08T20:31:47.516Z,-4.16
2023-02-08T20:34:16.862Z,-4.14
2023-02-08T20:36:57.507Z,-4.15
2023-02-08T20:39:34.514Z,-4.15
2023-02-08T20:42:02.215Z,-4.16
2023-02-08T20:44:31.481Z,-4.17
2023-02-08T20:46:59.339Z,-4.17
2023-02-08T20:49:26.990Z,-4.17
2023-02-08T20:51:55.226Z,-4.17
2023-02-08T20:54:24.890Z,-4.16
2023-02-08T20:56:54.846Z,-4.17
2023-02-08T20:59:23.539Z,-4.18
2023-02-08T21:01:51.681Z,-4.18
2023-02-08T21:04:23.163Z,-4.19
2023-02-08T21:06:52.231Z,-4.23
2023-02-08T21:09:20.888Z,-4.23
2023-02-08T21:11:48.836Z,-4.23
2023-02-08T21:14:20.800Z,-4.26
2023-02-08T21:16:51.148Z,-4.28
2023-02-08T21:19:20.600Z,-4.29
2023-02-08T21:21:51.129Z,-4.32
2023-02-08T21:24:18.787Z,-4.32
2023-02-08T21:26:46.435Z,-4.35
2023-02-08T21:29:14.097Z,-4.38
2023-02-08T21:31:43.207Z,-4.39
2023-02-08T21:34:12.842Z,-4.43
2023-02-08T21:36:40.736Z,-4.46
2023-02-08T21:39:08.426Z,-4.49
2023-02-08T21:41:36.086Z,-4.52
2023-02-08T21:44:08.019Z,-4.54
2023-02-08T21:46:35.935Z,-4.57
2023-02-08T21:49:22.522Z,-4.58
2023-02-08T21:52:07.884Z,-4.63
2023-02-08T21:54:45.810Z,-4.66
2023-02-08T21:57:17.783Z,-4.68
2023-02-08T21:59:46.011Z,-4.72
2023-02-08T22:02:16.646Z,-4.74
2023-02-08T22:04:46.776Z,-4.79
2023-02-08T22:07:14.821Z,-4.81
2023-02-08T22:09:42.539Z,-4.84
2023-02-08T22:12:14.699Z,-4.89
2023-02-08T22:14:42.565Z,-4.90
2023-02-08T22:17:10.757Z,-4.92
2023-02-08T22:19:38.755Z,-4.96
2023-02-08T22:22:08.294Z,-4.99
2023-02-08T22:24:36.920Z,-5.02
2023-02-08T22:27:04.771Z,-5.07
2023-02-08T22:29:33.044Z,-5.09
2023-02-08T22:32:01.120Z,-5.12
2023-02-08T22:34:29.261Z,-5.14
2023-02-08T22:36:56.904Z,-5.17
2023-02-08T22:39:25.970Z,-5.20
2023-02-08T22:41:53.625Z,-5.22
2023-02-08T22:44:21.294Z,-5.26
2023-02-08T22:46:48.954Z,-5.29
2023-02-08T22:49:16.758Z,-5.31
2023-02-08T22:51:44.419Z,-5.33
2023-02-08T22:54:12.022Z,-5.34
2023-02-08T22:56:41.079Z,-5.37
2023-02-08T22:59:08.696Z,-5.37
2023-02-08T23:01:36.403Z,-5.41
2023-02-08T23:04:04.785Z,-5.42
2023-02-08T23:06:32.436Z,-5.44
2023-02-08T23:09:00.084Z,-5.47
2023-02-08T23:11:27.741Z,-5.48
2023-02-08T23:13:56.806Z,-5.52
2023-02-08T23:16:24.654Z,-5.54
2023-02-08T23:18:52.318Z,-5.55
2023-02-08T23:21:21.815Z,-5.57
2023-02-08T23:23:49.704Z,-5.60
2023-02-08T23:26:19.802Z,-5.62
2023-02-08T23:28:49.838Z,-5.64
2023-02-08T23:31:19.880Z,-5.67
2023-02-08T23:33:47.657Z,-5.68
2023-02-08T23:36:17.807Z,-5.68
2023-02-08T23:38:45.747Z,-5.69
2023-02-08T23:41:16.021Z,-5.69
2023-02-08T23:43:44.085Z,-5.69
2023-02-08T23:46:15.647Z,-5.70
2023-02-08T23:48:44.758Z,-5.71
2023-02-08T23:51:12.634Z,-5.72
2023-02-08T23:53:40.518Z,-5.72
2023-02-08T23:56:14.484Z,-5.71
2023-02-08T23:58:42.499Z,-5.72
